createdAt,value
2023-01-02T00:00:20.832Z,12.90
2023-01-02T00:02:50.046Z,12.90
2023-01-02T00:05:18.403Z,12.90
2023-01-02T00:07:46.604Z,12.90
2023-01-02T00:10:15.011Z,12.80
2023-01-02T00:12:43.150Z,12.90
2023-01-02T00:15:13.085Z,12.90
2023-01-02T00:17:41.276Z,12.90
2023-01-02T00:20:10.605Z,12.90
2023-01-02T00:22:38.872Z,12.80
2023-01-02T00:25:08.133Z,12.80
2023-01-02T00:27:36.352Z,12.80
2023-01-02T00:30:05.899Z,12.80
2023-01-02T00:32:35.449Z,12.80
2023-01-02T00:35:03.588Z,12.80
2023-01-02T00:37:31.736Z,12.80
2023-01-02T00:39:59.915Z,12.80
2023-01-02T00:42:31.247Z,12.80
2023-01-02T00:44:59.379Z,12.80
2023-01-02T00:47:27.628Z,12.80
2023-01-02T00:49:57.128Z,12.80
2023-01-02T00:52:25.387Z,12.80
2023-01-02T00:54:53.519Z,12.80
2023-01-02T00:57:21.709Z,12.80
2023-01-02T00:59:49.907Z,12.80
2023-01-02T01:02:18.129Z,12.80
2023-01-02T01:04:46.455Z,12.80
2023-01-02T01:07:16.229Z,12.80
2023-01-02T01:09:44.401Z,12.90
2023-01-02T01:12:12.605Z,12.90
2023-01-02T01:14:40.799Z,12.90
2023-01-02T01:17:08.980Z,12.90
2023-01-02T01:19:37.318Z,12.90
2023-01-02T01:22:05.597Z,12.90
2023-01-02T01:24:35.156Z,12.90
2023-01-02T01:27:03.338Z,12.90
2023-01-02T01:29:31.509Z,12.90
2023-01-02T01:31:59.682Z,12.90
2023-01-02T01:34:27.863Z,12.90
2023-01-02T01:36:56.146Z,12.80
2023-01-02T01:39:24.301Z,12.80
2023-01-02T01:41:54.030Z,12.80
2023-01-02T01:44:47.456Z,12.80
2023-01-02T01:47:27.098Z,12.70
2023-01-02T01:50:05.908Z,12.70
2023-01-02T01:52:37.134Z,12.70
2023-01-02T01:55:11.135Z,12.70
2023-01-02T01:57:44.480Z,12.70
2023-01-02T02:00:13.917Z,12.70
2023-01-02T02:02:46.798Z,12.70
2023-01-02T02:05:20.472Z,12.70
2023-01-02T02:07:58.464Z,12.70
2023-01-02T02:10:26.711Z,12.70
2023-01-02T02:12:56.350Z,12.70
2023-01-02T02:15:32.436Z,12.70
2023-01-02T02:18:17.999Z,12.70
2023-01-02T02:20:55.049Z,12.70
2023-01-02T02:24:08.321Z,12.70
2023-01-02T02:26:58.055Z,12.70
2023-01-02T02:30:09.477Z,12.60
2023-01-02T02:32:52.741Z,12.70
2023-01-02T02:35:36.810Z,12.60
2023-01-02T02:38:10.201Z,12.60
2023-01-02T02:40:50.437Z,12.60
2023-01-02T02:43:27.491Z,12.60
2023-01-02T02:46:02.547Z,12.60
2023-01-02T02:48:46.419Z,12.60
2023-01-02T02:51:20.893Z,12.60
2023-01-02T02:53:55.240Z,12.60
2023-01-02T02:56:26.072Z,12.60
2023-01-02T02:58:55.479Z,12.60
2023-01-02T03:01:31.615Z,12.60
2023-01-02T03:04:01.242Z,12.60
2023-01-02T03:06:51.676Z,12.60
2023-01-02T03:09:28.169Z,12.60
2023-01-02T03:12:08.992Z,12.50
2023-01-02T03:14:44.576Z,12.50
2023-01-02T03:17:19.479Z,12.50
2023-01-02T03:19:54.153Z,12.50
2023-01-02T03:22:27.827Z,12.50
2023-01-02T03:24:58.092Z,12.50
2023-01-02T03:27:28.956Z,12.50
2023-01-02T03:30:02.495Z,12.50
2023-01-02T03:32:36.511Z,12.50
2023-01-02T03:35:14.927Z,12.50
2023-01-02T03:37:49.701Z,12.50
2023-01-02T03:40:21.336Z,12.50
2023-01-02T03:42:54.241Z,12.50
2023-01-02T03:45:25.586Z,12.50
2023-01-02T03:47:59.086Z,12.50
2023-01-02T03:50:35.152Z,12.50
2023-01-02T03:53:03.707Z,12.50
2023-01-02T03:55:37.988Z,12.50
2023-01-02T03:58:15.911Z,12.50
2023-01-02T04:00:50.268Z,12.40
2023-01-02T04:03:22.155Z,12.50
2023-01-02T04:05:59.736Z,12.40
2023-01-02T04:08:32.664Z,12.50
2023-01-02T04:11:03.135Z,12.50
2023-01-02T04:13:35.404Z,12.40
2023-01-02T04:16:05.902Z,12.40
2023-01-02T04:18:46.357Z,12.40
2023-01-02T04:21:22.166Z,12.40
2023-01-02T04:23:53.152Z,12.30
2023-01-02T04:26:25.828Z,12.30
2023-01-02T04:28:54.363Z,12.30
2023-01-02T04:31:28.001Z,12.30
2023-01-02T04:34:00.127Z,12.20
2023-01-02T04:36:29.857Z,12.20
2023-01-02T04:38:58.038Z,12.10
2023-01-02T04:41:27.934Z,12.10
2023-01-02T04:43:56.262Z,12.00
2023-01-02T04:46:25.515Z,12.10
2023-01-02T04:48:54.335Z,12.00
2023-01-02T04:51:22.951Z,12.00
2023-01-02T04:53:53.621Z,12.10
2023-01-02T04:56:22.159Z,12.10
2023-01-02T04:58:50.876Z,12.10
2023-01-02T05:01:21.447Z,12.20
2023-01-02T05:03:52.874Z,12.20
2023-01-02T05:06:21.491Z,12.20
2023-01-02T05:08:49.673Z,12.20
2023-01-02T05:11:20.885Z,12.10
2023-01-02T05:13:49.067Z,12.10
2023-01-02T05:16:17.318Z,12.10
2023-01-02T05:18:45.539Z,12.10
2023-01-02T05:21:28.824Z,12.10
2023-01-02T05:23:57.463Z,12.00
2023-01-02T05:26:27.270Z,12.00
2023-01-02T05:28:56.193Z,12.00
2023-01-02T05:31:24.514Z,12.00
2023-01-02T05:33:53.784Z,11.90
2023-01-02T05:36:23.017Z,11.90
2023-01-02T05:38:52.675Z,11.90
2023-01-02T05:41:21.845Z,11.90
2023-01-02T05:43:51.389Z,11.80
2023-01-02T05:46:21.691Z,11.90
2023-01-02T05:48:49.996Z,11.90
2023-01-02T05:51:19.072Z,11.90
2023-01-02T05:53:47.684Z,11.80
2023-01-02T05:56:21.241Z,11.80
2023-01-02T05:58:51.725Z,11.90
2023-01-02T06:01:21.370Z,11.80
2023-01-02T06:03:50.982Z,11.90
2023-01-02T06:06:21.115Z,11.80
2023-01-02T06:08:49.268Z,11.80
2023-01-02T06:11:17.846Z,11.80
2023-01-02T06:13:46.014Z,11.70
2023-01-02T06:16:15.629Z,11.70
2023-01-02T06:18:46.392Z,11.60
2023-01-02T06:21:16.267Z,11.60
2023-01-02T06:23:45.065Z,11.60
2023-01-02T06:26:16.906Z,11.50
2023-01-02T06:28:46.325Z,11.50
2023-01-02T06:31:18.139Z,11.40
2023-01-02T06:33:46.655Z,11.40
2023-01-02T06:36:18.794Z,11.40
2023-01-02T06:38:49.316Z,11.30
2023-01-02T06:41:18.277Z,11.30
2023-01-02T06:43:51.058Z,11.30
2023-01-02T06:46:22.792Z,11.30
2023-01-02T06:48:51.803Z,11.20
2023-01-02T06:51:21.875Z,11.10
2023-01-02T06:53:50.473Z,11.10
2023-01-02T06:56:20.248Z,11.10
2023-01-02T06:58:48.883Z,11.00
2023-01-02T07:01:19.082Z,11.00
2023-01-02T07:03:48.850Z,11.00
2023-01-02T07:06:20.045Z,11.00
2023-01-02T07:08:48.704Z,11.00
2023-01-02T07:11:18.711Z,11.00
2023-01-02T07:13:48.253Z,11.00
2023-01-02T07:16:18.524Z,11.00
2023-01-02T07:18:48.683Z,10.90
2023-01-02T07:21:18.194Z,10.90
2023-01-02T07:23:46.691Z,10.90
2023-01-02T07:26:15.461Z,10.90
2023-01-02T07:28:43.752Z,10.90
2023-01-02T07:31:15.311Z,11.00
2023-01-02T07:33:43.906Z,11.00
2023-01-02T07:36:16.752Z,11.00
2023-01-02T07:38:51.811Z,11.00
2023-01-02T07:41:25.371Z,11.00
2023-01-02T07:43:56.199Z,11.00
2023-01-02T07:46:25.300Z,11.10
2023-01-02T07:48:53.516Z,11.00
2023-01-02T07:51:27.346Z,11.00
2023-01-02T07:53:57.233Z,11.00
2023-01-02T07:56:25.534Z,11.10
2023-01-02T07:58:53.949Z,11.00
2023-01-02T08:01:22.431Z,11.10
2023-01-02T08:03:50.717Z,11.10
2023-01-02T08:06:20.165Z,11.10
2023-01-02T08:08:50.168Z,11.10
2023-01-02T08:11:20.384Z,11.20
2023-01-02T08:13:48.866Z,11.20
2023-01-02T08:16:18.448Z,11.20
2023-01-02T08:18:47.790Z,11.20
2023-01-02T08:21:16.574Z,11.30
2023-01-02T08:23:44.925Z,11.30
2023-01-02T08:26:14.455Z,11.20
2023-01-02T08:28:43.199Z,11.30
2023-01-02T08:31:13.304Z,11.30
2023-01-02T08:33:42.052Z,11.30
2023-01-02T08:36:10.981Z,11.30
2023-01-02T08:38:39.352Z,11.40
2023-01-02T08:41:07.627Z,11.40
2023-01-02T08:43:38.029Z,11.50
2023-01-02T08:46:07.715Z,11.50
2023-01-02T08:48:36.494Z,11.60
2023-01-02T08:51:07.739Z,11.60
2023-01-02T08:53:35.933Z,11.70
2023-01-02T08:56:24.245Z,11.70
2023-01-02T08:58:55.424Z,11.80
2023-01-02T09:01:24.246Z,11.90
2023-01-02T09:03:53.725Z,11.90
2023-01-02T09:06:23.252Z,12.00
2023-01-02T09:08:53.316Z,12.00
2023-01-02T09:11:25.317Z,12.00
2023-01-02T09:13:55.608Z,12.10
2023-01-02T09:16:27.237Z,12.10
2023-01-02T09:18:57.971Z,12.20
2023-01-02T09:21:26.659Z,12.30
2023-01-02T09:23:55.016Z,12.40
2023-01-02T09:26:23.291Z,12.60
2023-01-02T09:28:51.456Z,12.90
2023-01-02T09:31:21.984Z,13.20
2023-01-02T09:33:50.579Z,13.50
2023-01-02T09:36:22.318Z,13.80
2023-01-02T09:38:54.552Z,14.20
2023-01-02T09:41:31.576Z,14.50
2023-01-02T09:44:02.292Z,14.70
2023-01-02T09:46:36.859Z,14.90
2023-01-02T09:49:05.997Z,15.10
2023-01-02T09:51:35.437Z,15.20
2023-01-02T09:54:04.640Z,15.40
2023-01-02T09:56:38.613Z,15.60
2023-01-02T09:59:15.781Z,15.90
2023-01-02T10:01:57.012Z,16.00
2023-01-02T10:04:35.371Z,16.20
2023-01-02T10:07:10.237Z,16.20
2023-01-02T10:09:49.734Z,16.20
2023-01-02T10:12:26.177Z,16.30
2023-01-02T10:14:57.990Z,16.30
2023-01-02T10:17:38.464Z,16.30
2023-01-02T10:20:09.983Z,16.30
2023-01-02T10:22:42.306Z,16.10
2023-01-02T10:25:18.796Z,16.00
2023-01-02T10:27:50.162Z,15.90
2023-01-02T10:30:21.673Z,15.90
2023-01-02T10:33:02.408Z,15.80
2023-01-02T10:35:40.065Z,15.70
2023-01-02T10:38:11.472Z,15.60
2023-01-02T10:40:42.064Z,15.60
2023-01-02T10:43:11.635Z,15.50
2023-01-02T10:45:40.158Z,15.50
2023-01-02T10:48:11.844Z,15.50
2023-01-02T10:50:43.270Z,15.40
2023-01-02T10:53:21.845Z,15.40
2023-01-02T10:55:51.026Z,15.30
2023-01-02T10:58:23.634Z,15.20
2023-01-02T11:00:53.231Z,15.20
2023-01-02T11:03:26.098Z,15.10
2023-01-02T11:06:02.106Z,15.00
2023-01-02T11:08:39.678Z,14.90
2023-01-02T11:11:15.421Z,14.90
2023-01-02T11:13:53.593Z,14.80
2023-01-02T11:16:24.169Z,14.70
2023-01-02T11:18:56.086Z,14.70
2023-01-02T11:21:31.143Z,14.60
2023-01-02T11:24:03.074Z,14.60
2023-01-02T11:26:33.073Z,14.60
2023-01-02T11:29:10.973Z,14.60
2023-01-02T11:31:44.493Z,14.60
2023-01-02T11:34:21.265Z,14.60
2023-01-02T11:37:06.966Z,14.60
2023-01-02T11:39:36.010Z,14.60
2023-01-02T11:42:38.832Z,14.60
2023-01-02T11:45:09.367Z,14.60
2023-01-02T11:47:41.047Z,14.60
2023-01-02T11:50:19.679Z,14.60
2023-01-02T11:52:53.888Z,14.60
2023-01-02T11:55:34.943Z,14.60
2023-01-02T11:58:13.338Z,14.60
2023-01-02T12:00:43.951Z,14.60
2023-01-02T12:03:19.196Z,14.60
2023-01-02T12:06:03.613Z,14.50
2023-01-02T12:08:44.791Z,14.50
2023-01-02T12:11:25.832Z,14.50
2023-01-02T12:14:07.802Z,14.50
2023-01-02T12:16:43.646Z,14.50
2023-01-02T12:19:47.294Z,14.50
2023-01-02T12:22:53.993Z,14.40
2023-01-02T12:25:36.297Z,14.50
2023-01-02T12:28:19.926Z,14.40
2023-01-02T12:30:56.750Z,14.40
2023-01-02T12:33:46.859Z,14.40
2023-01-02T12:36:41.578Z,14.40
2023-01-02T12:39:31.953Z,14.50
2023-01-02T12:42:15.423Z,14.50
2023-01-02T12:44:55.585Z,14.50
2023-01-02T12:47:33.949Z,14.60
2023-01-02T12:50:24.598Z,14.50
2023-01-02T12:53:05.995Z,14.60
2023-01-02T12:55:46.446Z,14.60
2023-01-02T12:58:28.333Z,14.60
2023-01-02T13:01:06.650Z,14.60
2023-01-02T13:03:59.099Z,14.60
2023-01-02T13:06:43.851Z,14.60
2023-01-02T13:09:22.305Z,14.60
2023-01-02T13:12:01.179Z,14.60
2023-01-02T13:14:40.113Z,14.60
2023-01-02T13:17:42.916Z,14.60
2023-01-02T13:20:21.999Z,14.50
2023-01-02T13:22:58.904Z,14.50
2023-01-02T13:25:30.598Z,14.60
2023-01-02T13:28:05.811Z,14.60
2023-01-02T13:31:11.027Z,14.60
2023-01-02T13:33:47.176Z,14.70
2023-01-02T13:36:20.463Z,14.70
2023-01-02T13:38:52.898Z,14.70
2023-01-02T13:41:21.892Z,14.80
2023-01-02T13:43:56.305Z,14.80
2023-01-02T13:47:01.980Z,14.80
2023-01-02T13:49:20.741Z,14.80
2023-01-02T13:51:49.219Z,14.80
2023-01-02T13:54:20.879Z,14.80
2023-01-02T13:57:17.430Z,14.90
2023-01-02T13:59:58.319Z,14.90
2023-01-02T14:02:26.760Z,14.90
2023-01-02T14:04:55.426Z,14.90
2023-01-02T14:07:46.183Z,14.90
2023-01-02T14:10:45.598Z,14.90
2023-01-02T14:13:25.080Z,15.00
2023-01-02T14:16:20.899Z,15.00
2023-01-02T14:19:05.358Z,15.00
2023-01-02T15:39:48.797Z,13.20
2023-01-02T15:42:37.854Z,13.00
2023-01-02T15:45:13.858Z,13.00
2023-01-02T15:47:46.868Z,13.10
2023-01-02T15:50:19.626Z,13.10
2023-01-02T15:52:51.187Z,13.20
2023-01-02T15:55:22.055Z,13.20
2023-01-02T15:57:52.019Z,13.20
2023-01-02T16:00:37.799Z,13.30
2023-01-02T16:03:06.369Z,13.30
2023-01-02T16:05:47.146Z,13.30
2023-01-02T16:08:20.751Z,13.40
2023-01-02T16:11:01.243Z,13.40
2023-01-02T16:13:52.871Z,13.40
2023-01-02T16:16:23.590Z,13.40
2023-01-02T16:18:55.524Z,13.40
2023-01-02T16:21:31.751Z,13.40
2023-01-02T16:24:00.768Z,13.40
2023-01-02T16:26:34.212Z,13.40
2023-01-02T16:29:02.426Z,13.30
2023-01-02T16:31:30.648Z,13.40
2023-01-02T16:34:14.875Z,13.30
2023-01-02T16:36:43.380Z,13.40
2023-01-02T16:39:42.033Z,13.30
2023-01-02T16:42:29.186Z,13.40
2023-01-02T16:44:57.944Z,13.30
2023-01-02T16:47:30.861Z,13.30
2023-01-02T16:49:59.148Z,13.40
2023-01-02T16:52:29.604Z,13.30
2023-01-02T16:54:57.765Z,13.30
2023-01-02T16:57:27.336Z,13.30
2023-01-02T16:59:55.532Z,13.20
2023-01-02T17:02:23.757Z,13.20
2023-01-02T17:04:54.412Z,13.20
2023-01-02T17:07:22.838Z,13.20
2023-01-02T17:09:51.187Z,13.20
2023-01-02T17:12:19.459Z,13.20
2023-01-02T17:14:49.051Z,13.20
2023-01-02T17:17:17.223Z,13.10
2023-01-02T17:19:47.899Z,13.10
2023-01-02T17:22:16.272Z,13.10
2023-01-02T17:24:46.992Z,13.10
2023-01-02T17:27:15.182Z,13.00
2023-01-02T17:29:43.548Z,13.00
2023-01-02T17:32:13.193Z,13.00
2023-01-02T17:34:41.414Z,13.00
2023-01-02T17:37:09.566Z,12.90
2023-01-02T17:39:37.750Z,12.90
2023-01-02T17:42:09.184Z,12.80
2023-01-02T17:44:39.468Z,12.80
2023-01-02T17:47:48.197Z,12.70
2023-01-02T17:49:59.578Z,12.70
2023-01-02T17:52:27.799Z,12.70
2023-01-02T17:54:56.875Z,12.70
2023-01-02T17:57:25.449Z,12.70
2023-01-02T17:59:53.814Z,12.60
2023-01-02T18:02:22.757Z,12.60
2023-01-02T18:04:54.971Z,12.60
2023-01-02T18:07:27.022Z,12.60
2023-01-02T18:10:08.245Z,12.50
2023-01-02T18:12:38.087Z,12.60
2023-01-02T18:15:12.647Z,12.50
2023-01-02T18:17:40.868Z,12.50
2023-01-02T18:20:12.987Z,12.40
2023-01-02T18:22:49.001Z,12.50
2023-01-02T18:25:20.701Z,12.40
2023-01-02T18:27:49.288Z,12.40
2023-01-02T18:30:21.999Z,12.40
2023-01-02T18:32:51.601Z,12.40
2023-01-02T18:38:20.599Z,12.40
2023-01-02T18:40:48.857Z,12.40
2023-01-02T18:43:23.279Z,12.30
2023-01-02T18:45:54.931Z,12.30
2023-01-02T18:48:24.175Z,12.30
2023-01-02T18:51:00.711Z,12.30
2023-01-02T18:53:38.220Z,12.30
2023-01-02T18:56:27.276Z,12.30
2023-01-02T18:59:00.895Z,12.30
2023-01-02T19:01:31.557Z,12.20
2023-01-02T19:04:26.258Z,12.20
2023-01-02T19:06:57.860Z,12.20
2023-01-02T19:09:35.248Z,12.20
2023-01-02T19:12:40.573Z,12.20
2023-01-02T19:15:47.607Z,12.10
2023-01-02T19:18:26.579Z,12.10
2023-01-02T19:20:59.184Z,12.10
2023-01-02T19:23:31.572Z,12.10
2023-01-02T19:26:14.712Z,12.10
2023-01-02T19:28:49.514Z,12.10
2023-01-02T19:31:18.604Z,12.10
2023-01-02T19:33:52.779Z,12.10
2023-01-02T19:36:24.882Z,12.10
2023-01-02T19:38:53.305Z,12.10
2023-01-02T19:41:42.863Z,12.10
2023-01-02T19:44:11.046Z,12.10
2023-01-02T19:46:42.424Z,12.10
2023-01-02T19:49:10.718Z,12.10
2023-01-02T19:51:38.876Z,12.10
2023-01-02T19:54:07.196Z,12.10
2023-01-02T19:56:36.793Z,12.10
2023-01-02T19:59:09.440Z,12.10
2023-01-02T20:01:40.758Z,12.10
2023-01-02T20:04:08.996Z,12.10
2023-01-02T20:06:37.133Z,12.10
2023-01-02T20:09:05.345Z,12.10
2023-01-02T20:11:50.747Z,12.10
2023-01-02T20:14:22.556Z,12.10
2023-01-02T20:16:50.787Z,12.20
2023-01-02T20:19:18.926Z,12.20
2023-01-02T20:21:47.130Z,12.20
2023-01-02T20:24:15.272Z,12.30
2023-01-02T20:26:43.465Z,12.30
2023-01-02T20:29:11.689Z,12.30
2023-01-02T20:31:41.205Z,12.30
2023-01-02T20:34:09.351Z,12.30
2023-01-02T20:36:37.561Z,12.40
2023-01-02T20:39:05.769Z,12.40
2023-01-02T20:41:34.118Z,12.40
2023-01-02T20:44:02.349Z,12.40
2023-01-02T20:46:31.405Z,12.40
2023-01-02T20:49:01.263Z,12.40
2023-01-02T20:51:30.254Z,12.50
2023-01-02T20:53:59.193Z,12.40
2023-01-02T20:56:27.790Z,12.50
2023-01-02T20:58:56.992Z,12.40
2023-01-02T21:01:25.757Z,12.40
2023-01-02T21:03:54.157Z,12.50
2023-01-02T21:06:23.732Z,12.40
2023-01-02T21:08:54.155Z,12.40
2023-01-02T21:11:22.340Z,12.40
2023-01-02T21:13:50.505Z,12.50
2023-01-02T21:16:19.503Z,12.40
2023-01-02T21:18:47.777Z,12.40
2023-01-02T21:21:18.874Z,12.40
2023-01-02T21:23:50.165Z,12.40
2023-01-02T21:26:19.947Z,12.40
2023-01-02T21:28:48.570Z,12.40
2023-01-02T21:31:17.998Z,12.40
2023-01-02T21:33:48.804Z,12.40
2023-01-02T21:36:20.298Z,12.30
2023-01-02T21:38:49.821Z,12.30
2023-01-02T21:41:35.396Z,12.30
2023-01-02T21:44:03.591Z,12.30
2023-01-02T21:46:31.855Z,12.30
2023-01-02T21:49:00.843Z,12.30
2023-01-02T21:51:32.750Z,12.30
2023-01-02T21:54:02.732Z,12.30
2023-01-02T21:56:32.251Z,12.30
2023-01-02T21:59:02.802Z,12.30
2023-01-02T22:01:31.169Z,12.30
2023-01-02T22:03:59.404Z,12.30
2023-01-02T22:06:33.888Z,12.30
2023-01-02T22:09:04.254Z,12.30
2023-01-02T22:11:49.506Z,12.30
2023-01-02T22:14:17.688Z,12.30
2023-01-02T22:16:46.058Z,12.30
2023-01-02T22:19:14.397Z,12.20
2023-01-02T22:21:43.239Z,12.30
2023-01-02T22:24:12.823Z,12.20
2023-01-02T22:26:42.100Z,12.20
2023-01-02T22:29:13.756Z,12.20
2023-01-02T22:31:42.767Z,12.20
2023-01-02T22:34:11.722Z,12.20
2023-01-02T22:36:39.982Z,12.10
2023-01-02T22:39:27.705Z,12.10
2023-01-02T22:42:48.905Z,12.10
2023-01-02T22:45:02.569Z,12.10
2023-01-02T22:47:33.340Z,12.00
2023-01-02T22:50:01.813Z,12.00
2023-01-02T22:52:31.822Z,12.00
2023-01-02T22:55:00.000Z,12.00
2023-01-02T22:57:29.921Z,11.90
2023-01-02T22:59:58.095Z,11.90
2023-01-02T23:02:26.309Z,11.90
2023-01-02T23:04:54.456Z,11.90
2023-01-02T23:07:24.632Z,11.90
2023-01-02T23:09:55.409Z,11.90
2023-01-02T23:12:23.703Z,11.90
2023-01-02T23:14:53.214Z,11.80
2023-01-02T23:17:38.719Z,11.80
2023-01-02T23:20:09.901Z,11.70
2023-01-02T23:22:38.177Z,11.70
2023-01-02T23:25:07.606Z,11.60
2023-01-02T23:27:35.871Z,11.60
2023-01-02T23:30:06.294Z,11.60
2023-01-02T23:32:34.561Z,11.60
2023-01-02T23:35:02.770Z,11.50
2023-01-02T23:37:33.279Z,11.50
2023-01-02T23:40:01.522Z,11.50
2023-01-02T23:42:29.733Z,11.50
2023-01-02T23:44:57.947Z,11.60
2023-01-02T23:47:27.456Z,11.50
2023-01-02T23:49:55.693Z,11.60
2023-01-02T23:52:23.885Z,11.60
2023-01-02T23:54:52.229Z,11.60
2023-01-02T23:57:20.449Z,11.60
2023-01-02T23:59:48.625Z,11.60
